sensor_id;sensor_type;location;lat;lon;timestamp;P1;durP1;ratioP1;P2;durP2;ratioP2
22201;SDS011;11266;51.522;6.302;2023-08-01T00:00:09;7.95;;;1.40;;
22201;SDS011;11266;51.522;6.302;2023-08-01T00:00:55;3.80;;;1.50;;
22201;SDS011;11266;51.522;6.302;2023-08-01T00:01:41;6.30;;;1.50;;
22201;SDS011;11266;51.522;6.302;2023-08-01T00:02:27;8.68;;;1.50;;
22201;SDS011;11266;51.522;6.302;2023-08-01T00:03:13;6.18;;;1.70;;
22201;SDS011;11266;51.522;6.302;2023-08-01T00:03:58;3.83;;;1.58;;
22201;SDS011;11266;51.522;6.302;2023-08-01T00:04:44;3.17;;;1.70;;
22201;SDS011;11266;51.522;6.302;2023-08-01T00:05:30;4.43;;;1.40;;
22201;SDS011;11266;51.522;6.302;2023-08-01T00:06:15;6.53;;;1.52;;
22201;SDS011;11266;51.522;6.302;2023-08-01T00:07:01;7.63;;;1.50;;
22201;SDS011;11266;51.522;6.302;2023-08-01T00:07:46;3.35;;;1.40;;
22201;SDS011;11266;51.522;6.302;2023-08-01T00:08:32;3.67;;;1.42;;
22201;SDS011;11266;51.522;6.302;2023-08-01T00:09:18;2.85;;;1.40;;
22201;SDS011;11266;51.522;6.302;2023-08-01T00:10:04;3.38;;;1.40;;
22201;SDS011;11266;51.522;6.302;2023-08-01T00:10:50;2.72;;;1.25;;
22201;SDS011;11266;51.522;6.302;2023-08-01T00:11:35;7.35;;;1.77;;
22201;SDS011;11266;51.522;6.302;2023-08-01T00:12:21;5.10;;;2.70;;
22201;SDS011;11266;51.522;6.302;2023-08-01T00:13:08;2.20;;;1.30;;
22201;SDS011;11266;51.522;6.302;2023-08-01T00:13:54;3.08;;;1.33;;
22201;SDS011;11266;51.522;6.302;2023-08-01T00:14:39;3.08;;;1.30;;
22201;SDS011;11266;51.522;6.302;2023-08-01T00:15:25;6.38;;;1.50;;
22201;SDS011;11266;51.522;6.302;2023-08-01T00:16:11;3.53;;;1.60;;
22201;SDS011;11266;51.522;6.302;2023-08-01T00:16:56;12.10;;;2.22;;
22201;SDS011;11266;51.522;6.302;2023-08-01T00:17:42;4.15;;;1.40;;
22201;SDS011;11266;51.522;6.302;2023-08-01T00:18:27;6.50;;;1.92;;
22201;SDS011;11266;51.522;6.302;2023-08-01T00:19:13;5.55;;;1.63;;
22201;SDS011;11266;51.522;6.302;2023-08-01T00:19:58;8.68;;;1.63;;
22201;SDS011;11266;51.522;6.302;2023-08-01T00:20:44;10.35;;;1.88;;
22201;SDS011;11266;51.522;6.302;2023-08-01T00:21:29;5.15;;;1.90;;
22201;SDS011;11266;51.522;6.302;2023-08-01T00:22:16;10.90;;;2.38;;
22201;SDS011;11266;51.522;6.302;2023-08-01T00:23:02;13.35;;;2.17;;
22201;SDS011;11266;51.522;6.302;2023-08-01T00:23:48;4.50;;;1.80;;
22201;SDS011;11266;51.522;6.302;2023-08-01T00:24:33;9.57;;;2.15;;
22201;SDS011;11266;51.522;6.302;2023-08-01T00:25:20;9.60;;;2.00;;
22201;SDS011;11266;51.522;6.302;2023-08-01T00:26:05;13.13;;;2.30;;
22201;SDS011;11266;51.522;6.302;2023-08-01T00:26:51;9.93;;;2.33;;
22201;SDS011;11266;51.522;6.302;2023-08-01T00:27:40;13.85;;;2.45;;
22201;SDS011;11266;51.522;6.302;2023-08-01T00:28:25;9.57;;;2.38;;
22201;SDS011;11266;51.522;6.302;2023-08-01T00:29:11;15.90;;;2.92;;
22201;SDS011;11266;51.522;6.302;2023-08-01T00:29:57;10.38;;;2.20;;
22201;SDS011;11266;51.522;6.302;2023-08-01T00:30:42;9.35;;;2.30;;
22201;SDS011;11266;51.522;6.302;2023-08-01T00:31:28;5.63;;;1.92;;
22201;SDS011;11266;51.522;6.302;2023-08-01T00:32:13;4.38;;;1.77;;
22201;SDS011;11266;51.522;6.302;2023-08-01T00:32:59;3.63;;;1.88;;
22201;SDS011;11266;51.522;6.302;2023-08-01T00:33:45;10.15;;;2.10;;
22201;SDS011;11266;51.522;6.302;2023-08-01T00:34:30;10.20;;;2.42;;
22201;SDS011;11266;51.522;6.302;2023-08-01T00:35:16;7.30;;;2.10;;
22201;SDS011;11266;51.522;6.302;2023-08-01T00:36:02;7.47;;;2.00;;
22201;SDS011;11266;51.522;6.302;2023-08-01T00:36:48;9.30;;;3.13;;
22201;SDS011;11266;51.522;6.302;2023-08-01T00:37:34;8.75;;;2.00;;
22201;SDS011;11266;51.522;6.302;2023-08-01T00:38:19;7.80;;;2.20;;
22201;SDS011;11266;51.522;6.302;2023-08-01T00:39:05;6.78;;;2.15;;
22201;SDS011;11266;51.522;6.302;2023-08-01T00:39:50;9.25;;;2.30;;
22201;SDS011;11266;51.522;6.302;2023-08-01T00:40:36;7.75;;;2.22;;
22201;SDS011;11266;51.522;6.302;2023-08-01T00:41:22;6.60;;;3.47;;
22201;SDS011;11266;51.522;6.302;2023-08-01T00:42:07;6.30;;;1.92;;
22201;SDS011;11266;51.522;6.302;2023-08-01T00:42:53;8.32;;;2.17;;
22201;SDS011;11266;51.522;6.302;2023-08-01T00:43:41;4.75;;;1.58;;
22201;SDS011;11266;51.522;6.302;2023-08-01T00:44:27;5.45;;;2.28;;
22201;SDS011;11266;51.522;6.302;2023-08-01T00:45:12;6.07;;;2.35;;
22201;SDS011;11266;51.522;6.302;2023-08-01T00:45:59;7.90;;;2.00;;
22201;SDS011;11266;51.522;6.302;2023-08-01T00:46:46;9.80;;;2.40;;
22201;SDS011;11266;51.522;6.302;2023-08-01T00:47:31;7.63;;;2.10;;
22201;SDS011;11266;51.522;6.302;2023-08-01T00:48:17;6.05;;;1.95;;
22201;SDS011;11266;51.522;6.302;2023-08-01T00:49:03;7.30;;;1.83;;
22201;SDS011;11266;51.522;6.302;2023-08-01T00:49:49;4.88;;;1.80;;
22201;SDS011;11266;51.522;6.302;2023-08-01T00:50:35;10.13;;;2.15;;
22201;SDS011;11266;51.522;6.302;2023-08-01T00:51:20;13.85;;;3.05;;
22201;SDS011;11266;51.522;6.302;2023-08-01T00:52:06;8.73;;;2.08;;
22201;SDS011;11266;51.522;6.302;2023-08-01T00:52:53;8.00;;;1.80;;
22201;SDS011;11266;51.522;6.302;2023-08-01T00:53:39;8.90;;;2.42;;
22201;SDS011;11266;51.522;6.302;2023-08-01T00:54:25;10.13;;;2.10;;
22201;SDS011;11266;51.522;6.302;2023-08-01T00:55:11;7.28;;;1.77;;
22201;SDS011;11266;51.522;6.302;2023-08-01T00:55:57;11.00;;;2.78;;
22201;SDS011;11266;51.522;6.302;2023-08-01T00:56:43;7.57;;;2.00;;
22201;SDS011;11266;51.522;6.302;2023-08-01T00:57:29;5.72;;;2.28;;
22201;SDS011;11266;51.522;6.302;2023-08-01T00:58:15;7.75;;;2.45;;
22201;SDS011;11266;51.522;6.302;2023-08-01T00:59:01;17.02;;;2.35;;
22201;SDS011;11266;51.522;6.302;2023-08-01T00:59:46;4.90;;;1.85;;
22201;SDS011;11266;51.522;6.302;2023-08-01T01:00:32;6.15;;;2.25;;
22201;SDS011;11266;51.522;6.302;2023-08-01T01:01:18;5.55;;;1.77;;
22201;SDS011;11266;51.522;6.302;2023-08-01T01:02:04;4.93;;;2.03;;
22201;SDS011;11266;51.522;6.302;2023-08-01T01:02:50;4.70;;;2.38;;
22201;SDS011;11266;51.522;6.302;2023-08-01T01:03:36;6.50;;;2.38;;
22201;SDS011;11266;51.522;6.302;2023-08-01T01:04:22;14.43;;;2.63;;
22201;SDS011;11266;51.522;6.302;2023-08-01T01:05:08;7.82;;;2.38;;
22201;SDS011;11266;51.522;6.302;2023-08-01T01:05:57;6.57;;;2.85;;
22201;SDS011;11266;51.522;6.302;2023-08-01T01:07:02;8.38;;;2.42;;
22201;SDS011;11266;51.522;6.302;2023-08-01T01:07:50;6.68;;;2.10;;
22201;SDS011;11266;51.522;6.302;2023-08-01T01:08:36;5.53;;;1.98;;
22201;SDS011;11266;51.522;6.302;2023-08-01T01:09:22;4.80;;;2.75;;
22201;SDS011;11266;51.522;6.302;2023-08-01T01:10:07;6.25;;;1.92;;
22201;SDS011;11266;51.522;6.302;2023-08-01T01:10:53;6.80;;;2.20;;
22201;SDS011;11266;51.522;6.302;2023-08-01T01:11:38;14.43;;;2.45;;
22201;SDS011;11266;51.522;6.302;2023-08-01T01:12:24;7.47;;;1.67;;
22201;SDS011;11266;51.522;6.302;2023-08-01T01:13:09;7.10;;;2.30;;
22201;SDS011;11266;51.522;6.302;2023-08-01T01:13:55;10.63;;;2.20;;
22201;SDS011;11266;51.522;6.302;2023-08-01T01:14:41;11.35;;;2.90;;
22201;SDS011;11266;51.522;6.302;2023-08-01T01:15:26;8.18;;;1.77;;
22201;SDS011;11266;51.522;6.302;2023-08-01T01:16:12;7.30;;;1.95;;
22201;SDS011;11266;51.522;6.302;2023-08-01T01:16:57;9.90;;;2.03;;
22201;SDS011;11266;51.522;6.302;2023-08-01T01:17:44;6.38;;;1.90;;
22201;SDS011;11266;51.522;6.302;2023-08-01T01:18:30;7.78;;;2.47;;
22201;SDS011;11266;51.522;6.302;2023-08-01T01:19:15;4.85;;;2.00;;
22201;SDS011;11266;51.522;6.302;2023-08-01T01:20:01;15.07;;;2.30;;
22201;SDS011;11266;51.522;6.302;2023-08-01T01:20:46;8.80;;;2.30;;
22201;SDS011;11266;51.522;6.302;2023-08-01T01:21:33;23.55;;;2.47;;
22201;SDS011;11266;51.522;6.302;2023-08-01T01:22:26;15.02;;;3.03;;
22201;SDS011;11266;51.522;6.302;2023-08-01T01:23:13;7.32;;;2.42;;
22201;SDS011;11266;51.522;6.302;2023-08-01T01:23:59;5.03;;;1.88;;
22201;SDS011;11266;51.522;6.302;2023-08-01T01:24:45;3.13;;;1.80;;
22201;SDS011;11266;51.522;6.302;2023-08-01T01:25:32;6.50;;;2.10;;
22201;SDS011;11266;51.522;6.302;2023-08-01T01:26:20;7.32;;;2.15;;
22201;SDS011;11266;51.522;6.302;2023-08-01T01:27:06;7.43;;;3.08;;
22201;SDS011;11266;51.522;6.302;2023-08-01T01:27:53;4.13;;;1.83;;
22201;SDS011;11266;51.522;6.302;2023-08-01T01:28:39;6.55;;;1.80;;
22201;SDS011;11266;51.522;6.302;2023-08-01T01:29:26;8.27;;;2.03;;
22201;SDS011;11266;51.522;6.302;2023-08-01T01:30:12;9.27;;;2.50;;
22201;SDS011;11266;51.522;6.302;2023-08-01T01:30:58;8.48;;;1.90;;
22201;SDS011;11266;51.522;6.302;2023-08-01T01:31:45;5.78;;;2.00;;
22201;SDS011;11266;51.522;6.302;2023-08-01T01:32:32;6.85;;;2.20;;
22201;SDS011;11266;51.522;6.302;2023-08-01T01:33:18;6.78;;;2.10;;
22201;SDS011;11266;51.522;6.302;2023-08-01T01:34:04;10.02;;;2.40;;
22201;SDS011;11266;51.522;6.302;2023-08-01T01:34:50;6.07;;;2.25;;
22201;SDS011;11266;51.522;6.302;2023-08-01T01:35:36;6.82;;;2.00;;
22201;SDS011;11266;51.522;6.302;2023-08-01T01:36:21;7.60;;;2.15;;
22201;SDS011;11266;51.522;6.302;2023-08-01T01:37:07;5.13;;;2.30;;
22201;SDS011;11266;51.522;6.302;2023-08-01T01:37:53;5.68;;;2.40;;
22201;SDS011;11266;51.522;6.302;2023-08-01T01:38:38;9.23;;;2.33;;
22201;SDS011;11266;51.522;6.302;2023-08-01T01:39:24;5.95;;;2.50;;
22201;SDS011;11266;51.522;6.302;2023-08-01T01:40:09;9.43;;;2.80;;
22201;SDS011;11266;51.522;6.302;2023-08-01T01:40:55;7.28;;;2.25;;
22201;SDS011;11266;51.522;6.302;2023-08-01T01:41:41;6.68;;;2.42;;
22201;SDS011;11266;51.522;6.302;2023-08-01T01:42:26;5.68;;;2.40;;
22201;SDS011;11266;51.522;6.302;2023-08-01T01:43:12;6.38;;;1.90;;
22201;SDS011;11266;51.522;6.302;2023-08-01T01:43:57;15.35;;;3.10;;
22201;SDS011;11266;51.522;6.302;2023-08-01T01:44:43;7.35;;;2.30;;
22201;SDS011;11266;51.522;6.302;2023-08-01T01:45:28;10.25;;;2.70;;
22201;SDS011;11266;51.522;6.302;2023-08-01T01:46:14;11.30;;;2.55;;
22201;SDS011;11266;51.522;6.302;2023-08-01T01:46:59;6.43;;;2.85;;
22201;SDS011;11266;51.522;6.302;2023-08-01T01:47:45;4.28;;;2.25;;
22201;SDS011;11266;51.522;6.302;2023-08-01T01:48:30;6.85;;;2.20;;
22201;SDS011;11266;51.522;6.302;2023-08-01T01:49:16;14.93;;;2.83;;
22201;SDS011;11266;51.522;6.302;2023-08-01T01:50:01;8.00;;;2.40;;
22201;SDS011;11266;51.522;6.302;2023-08-01T01:50:48;10.68;;;2.42;;
22201;SDS011;11266;51.522;6.302;2023-08-01T01:51:34;8.80;;;3.00;;
22201;SDS011;11266;51.522;6.302;2023-08-01T01:52:19;5.40;;;2.60;;
22201;SDS011;11266;51.522;6.302;2023-08-01T01:53:05;11.02;;;2.78;;
22201;SDS011;11266;51.522;6.302;2023-08-01T01:53:50;12.43;;;2.70;;
22201;SDS011;11266;51.522;6.302;2023-08-01T01:54:36;16.70;;;3.08;;
22201;SDS011;11266;51.522;6.302;2023-08-01T01:55:22;9.20;;;3.20;;
22201;SDS011;11266;51.522;6.302;2023-08-01T01:56:07;16.13;;;3.97;;
22201;SDS011;11266;51.522;6.302;2023-08-01T01:56:53;10.27;;;3.42;;
22201;SDS011;11266;51.522;6.302;2023-08-01T01:57:38;11.00;;;3.47;;
22201;SDS011;11266;51.522;6.302;2023-08-01T01:58:25;14.93;;;3.67;;
22201;SDS011;11266;51.522;6.302;2023-08-01T01:59:10;10.73;;;3.17;;
22201;SDS011;11266;51.522;6.302;2023-08-01T01:59:57;7.68;;;3.40;;
22201;SDS011;11266;51.522;6.302;2023-08-01T02:00:42;13.20;;;3.33;;
22201;SDS011;11266;51.522;6.302;2023-08-01T02:01:28;8.63;;;3.78;;
22201;SDS011;11266;51.522;6.302;2023-08-01T02:02:13;18.90;;;3.88;;
22201;SDS011;11266;51.522;6.302;2023-08-01T02:02:59;7.07;;;3.65;;
22201;SDS011;11266;51.522;6.302;2023-08-01T02:03:47;10.18;;;3.90;;
22201;SDS011;11266;51.522;6.302;2023-08-01T02:04:33;12.35;;;4.60;;
22201;SDS011;11266;51.522;6.302;2023-08-01T02:05:18;16.17;;;3.92;;
22201;SDS011;11266;51.522;6.302;2023-08-01T02:06:04;8.30;;;3.80;;
22201;SDS011;11266;51.522;6.302;2023-08-01T02:06:49;10.85;;;3.60;;
22201;SDS011;11266;51.522;6.302;2023-08-01T02:07:35;11.48;;;4.53;;
22201;SDS011;11266;51.522;6.302;2023-08-01T02:08:20;9.10;;;4.53;;
22201;SDS011;11266;51.522;6.302;2023-08-01T02:09:06;13.55;;;5.00;;
22201;SDS011;11266;51.522;6.302;2023-08-01T02:09:52;13.77;;;4.35;;
22201;SDS011;11266;51.522;6.302;2023-08-01T02:10:38;15.88;;;4.45;;
22201;SDS011;11266;51.522;6.302;2023-08-01T02:11:23;6.45;;;4.38;;
22201;SDS011;11266;51.522;6.302;2023-08-01T02:12:09;8.98;;;4.68;;
22201;SDS011;11266;51.522;6.302;2023-08-01T02:12:58;13.13;;;4.30;;
22201;SDS011;11266;51.522;6.302;2023-08-01T02:13:44;19.60;;;4.70;;
22201;SDS011;11266;51.522;6.302;2023-08-01T02:14:29;8.48;;;4.53;;
22201;SDS011;11266;51.522;6.302;2023-08-01T02:15:15;7.88;;;5.07;;
22201;SDS011;11266;51.522;6.302;2023-08-01T02:16:01;7.72;;;4.28;;
22201;SDS011;11266;51.522;6.302;2023-08-01T02:16:46;14.30;;;4.78;;
22201;SDS011;11266;51.522;6.302;2023-08-01T02:17:32;14.38;;;5.07;;
22201;SDS011;11266;51.522;6.302;2023-08-01T02:18:17;11.13;;;4.97;;
22201;SDS011;11266;51.522;6.302;2023-08-01T02:19:03;18.63;;;5.45;;
22201;SDS011;11266;51.522;6.302;2023-08-01T02:19:48;8.65;;;4.63;;
22201;SDS011;11266;51.522;6.302;2023-08-01T02:20:34;12.05;;;4.70;;
22201;SDS011;11266;51.522;6.302;2023-08-01T02:21:19;14.02;;;5.97;;
22201;SDS011;11266;51.522;6.302;2023-08-01T02:22:05;13.57;;;5.75;;
22201;SDS011;11266;51.522;6.302;2023-08-01T02:22:51;10.70;;;5.05;;
22201;SDS011;11266;51.522;6.302;2023-08-01T02:23:36;10.23;;;5.95;;
22201;SDS011;11266;51.522;6.302;2023-08-01T02:24:22;11.63;;;5.10;;
22201;SDS011;11266;51.522;6.302;2023-08-01T02:25:08;16.38;;;6.22;;
22201;SDS011;11266;51.522;6.302;2023-08-01T02:25:53;12.65;;;5.63;;
22201;SDS011;11266;51.522;6.302;2023-08-01T02:26:39;21.02;;;6.25;;
22201;SDS011;11266;51.522;6.302;2023-08-01T02:27:24;8.95;;;5.18;;
22201;SDS011;11266;51.522;6.302;2023-08-01T02:28:10;13.45;;;6.10;;
22201;SDS011;11266;51.522;6.302;2023-08-01T02:28:57;11.90;;;5.55;;
22201;SDS011;11266;51.522;6.302;2023-08-01T02:29:42;14.95;;;5.72;;
22201;SDS011;11266;51.522;6.302;2023-08-01T02:30:29;14.68;;;5.90;;
22201;SDS011;11266;51.522;6.302;2023-08-01T02:31:15;17.15;;;6.32;;
22201;SDS011;11266;51.522;6.302;2023-08-01T02:32:01;10.15;;;5.38;;
22201;SDS011;11266;51.522;6.302;2023-08-01T02:32:46;14.07;;;6.85;;
22201;SDS011;11266;51.522;6.302;2023-08-01T02:33:32;15.85;;;5.80;;
22201;SDS011;11266;51.522;6.302;2023-08-01T02:34:17;16.77;;;6.07;;
22201;SDS011;11266;51.522;6.302;2023-08-01T02:35:03;14.43;;;6.10;;
22201;SDS011;11266;51.522;6.302;2023-08-01T02:35:49;14.90;;;6.70;;
22201;SDS011;11266;51.522;6.302;2023-08-01T02:36:35;14.40;;;6.20;;
22201;SDS011;11266;51.522;6.302;2023-08-01T02:37:20;14.10;;;7.43;;
22201;SDS011;11266;51.522;6.302;2023-08-01T02:38:06;16.85;;;6.40;;
22201;SDS011;11266;51.522;6.302;2023-08-01T02:38:51;14.35;;;7.53;;
22201;SDS011;11266;51.522;6.302;2023-08-01T02:39:37;13.00;;;6.13;;
22201;SDS011;11266;51.522;6.302;2023-08-01T02:40:22;14.30;;;6.10;;
22201;SDS011;11266;51.522;6.302;2023-08-01T02:41:08;17.02;;;6.80;;
22201;SDS011;11266;51.522;6.302;2023-08-01T02:41:53;20.02;;;7.47;;
22201;SDS011;11266;51.522;6.302;2023-08-01T02:42:39;14.52;;;5.93;;
22201;SDS011;11266;51.522;6.302;2023-08-01T02:43:24;12.68;;;5.93;;
22201;SDS011;11266;51.522;6.302;2023-08-01T02:44:10;15.10;;;6.65;;
22201;SDS011;11266;51.522;6.302;2023-08-01T02:44:55;14.80;;;6.57;;
22201;SDS011;11266;51.522;6.302;2023-08-01T02:45:41;22.60;;;7.00;;
22201;SDS011;11266;51.522;6.302;2023-08-01T02:46:27;11.15;;;6.28;;
22201;SDS011;11266;51.522;6.302;2023-08-01T02:47:14;9.77;;;6.15;;
22201;SDS011;11266;51.522;6.302;2023-08-01T02:48:00;9.55;;;6.40;;
22201;SDS011;11266;51.522;6.302;2023-08-01T02:48:45;15.63;;;5.97;;
22201;SDS011;11266;51.522;6.302;2023-08-01T02:49:31;13.85;;;6.85;;
22201;SDS011;11266;51.522;6.302;2023-08-01T02:50:17;15.60;;;6.38;;
22201;SDS011;11266;51.522;6.302;2023-08-01T02:51:02;19.55;;;7.38;;
22201;SDS011;11266;51.522;6.302;2023-08-01T02:51:48;18.25;;;7.90;;
22201;SDS011;11266;51.522;6.302;2023-08-01T02:52:33;10.38;;;6.28;;
22201;SDS011;11266;51.522;6.302;2023-08-01T02:53:19;15.13;;;6.47;;
22201;SDS011;11266;51.522;6.302;2023-08-01T02:54:05;13.18;;;6.72;;
22201;SDS011;11266;51.522;6.302;2023-08-01T02:54:50;13.32;;;6.53;;
22201;SDS011;11266;51.522;6.302;2023-08-01T02:55:36;19.95;;;6.50;;
22201;SDS011;11266;51.522;6.302;2023-08-01T02:56:21;10.68;;;5.88;;
22201;SDS011;11266;51.522;6.302;2023-08-01T02:57:07;10.70;;;6.07;;
22201;SDS011;11266;51.522;6.302;2023-08-01T02:57:52;12.23;;;7.00;;
22201;SDS011;11266;51.522;6.302;2023-08-01T02:58:38;15.25;;;6.18;;
22201;SDS011;11266;51.522;6.302;2023-08-01T02:59:23;10.93;;;5.95;;
22201;SDS011;11266;51.522;6.302;2023-08-01T03:00:09;15.73;;;6.57;;
22201;SDS011;11266;51.522;6.302;2023-08-01T03:00:56;13.20;;;6.40;;
22201;SDS011;11266;51.522;6.302;2023-08-01T03:01:42;14.98;;;6.55;;
22201;SDS011;11266;51.522;6.302;2023-08-01T03:02:27;14.27;;;7.22;;
22201;SDS011;11266;51.522;6.302;2023-08-01T03:03:13;10.18;;;6.15;;
22201;SDS011;11266;51.522;6.302;2023-08-01T03:03:58;20.42;;;6.45;;
22201;SDS011;11266;51.522;6.302;2023-08-01T03:04:44;15.52;;;7.20;;
22201;SDS011;11266;51.522;6.302;2023-08-01T03:05:29;11.02;;;5.85;;
22201;SDS011;11266;51.522;6.302;2023-08-01T03:06:15;17.02;;;6.88;;
22201;SDS011;11266;51.522;6.302;2023-08-01T03:07:01;14.77;;;6.93;;
22201;SDS011;11266;51.522;6.302;2023-08-01T03:07:46;16.30;;;7.82;;
22201;SDS011;11266;51.522;6.302;2023-08-01T03:08:32;14.40;;;6.85;;
22201;SDS011;11266;51.522;6.302;2023-08-01T03:09:17;32.30;;;6.82;;
22201;SDS011;11266;51.522;6.302;2023-08-01T03:10:03;12.25;;;6.03;;
22201;SDS011;11266;51.522;6.302;2023-08-01T03:10:49;12.60;;;6.22;;
22201;SDS011;11266;51.522;6.302;2023-08-01T03:11:37;16.00;;;6.93;;
22201;SDS011;11266;51.522;6.302;2023-08-01T03:12:23;19.95;;;6.47;;
22201;SDS011;11266;51.522;6.302;2023-08-01T03:13:08;16.45;;;6.53;;
22201;SDS011;11266;51.522;6.302;2023-08-01T03:13:54;16.77;;;6.95;;
22201;SDS011;11266;51.522;6.302;2023-08-01T03:14:39;12.23;;;5.97;;
22201;SDS011;11266;51.522;6.302;2023-08-01T03:15:28;10.25;;;5.55;;
22201;SDS011;11266;51.522;6.302;2023-08-01T03:16:13;13.82;;;6.10;;
22201;SDS011;11266;51.522;6.302;2023-08-01T03:16:59;15.93;;;6.25;;
22201;SDS011;11266;51.522;6.302;2023-08-01T03:17:44;11.85;;;6.18;;
22201;SDS011;11266;51.522;6.302;2023-08-01T03:18:30;17.00;;;7.30;;
22201;SDS011;11266;51.522;6.302;2023-08-01T03:19:15;15.18;;;6.55;;
22201;SDS011;11266;51.522;6.302;2023-08-01T03:20:01;16.92;;;6.25;;
22201;SDS011;11266;51.522;6.302;2023-08-01T03:20:48;13.88;;;5.88;;
22201;SDS011;11266;51.522;6.302;2023-08-01T03:21:33;12.23;;;5.82;;
22201;SDS011;11266;51.522;6.302;2023-08-01T03:22:20;14.43;;;6.90;;
22201;SDS011;11266;51.522;6.302;2023-08-01T03:23:05;13.43;;;6.53;;
22201;SDS011;11266;51.522;6.302;2023-08-01T03:23:51;15.52;;;7.07;;
22201;SDS011;11266;51.522;6.302;2023-08-01T03:24:37;16.60;;;6.43;;
22201;SDS011;11266;51.522;6.302;2023-08-01T03:25:22;14.45;;;6.28;;
22201;SDS011;11266;51.522;6.302;2023-08-01T03:26:08;11.80;;;6.20;;
22201;SDS011;11266;51.522;6.302;2023-08-01T03:26:54;11.95;;;5.63;;
22201;SDS011;11266;51.522;6.302;2023-08-01T03:27:39;13.05;;;6.13;;
22201;SDS011;11266;51.522;6.302;2023-08-01T03:28:26;16.75;;;7.82;;
22201;SDS011;11266;51.522;6.302;2023-08-01T03:29:11;16.13;;;6.03;;
22201;SDS011;11266;51.522;6.302;2023-08-01T03:29:57;12.07;;;6.18;;
22201;SDS011;11266;51.522;6.302;2023-08-01T03:30:42;14.80;;;6.22;;
22201;SDS011;11266;51.522;6.302;2023-08-01T03:31:28;20.45;;;6.50;;
22201;SDS011;11266;51.522;6.302;2023-08-01T03:32:14;18.35;;;7.15;;
22201;SDS011;11266;51.522;6.302;2023-08-01T03:33:00;15.07;;;7.15;;
22201;SDS011;11266;51.522;6.302;2023-08-01T03:33:47;17.55;;;6.78;;
22201;SDS011;11266;51.522;6.302;2023-08-01T03:34:33;12.40;;;6.50;;
22201;SDS011;11266;51.522;6.302;2023-08-01T03:35:18;10.73;;;6.00;;
22201;SDS011;11266;51.522;6.302;2023-08-01T03:36:04;21.52;;;6.85;;
22201;SDS011;11266;51.522;6.302;2023-08-01T03:36:49;14.07;;;6.15;;
22201;SDS011;11266;51.522;6.302;2023-08-01T03:37:35;12.73;;;6.72;;
22201;SDS011;11266;51.522;6.302;2023-08-01T03:38:21;17.83;;;6.30;;
22201;SDS011;11266;51.522;6.302;2023-08-01T03:39:06;20.60;;;7.03;;
22201;SDS011;11266;51.522;6.302;2023-08-01T03:39:52;17.33;;;6.93;;
22201;SDS011;11266;51.522;6.302;2023-08-01T03:40:37;10.30;;;6.43;;
22201;SDS011;11266;51.522;6.302;2023-08-01T03:41:23;14.85;;;6.28;;
22201;SDS011;11266;51.522;6.302;2023-08-01T03:42:09;14.13;;;6.45;;
22201;SDS011;11266;51.522;6.302;2023-08-01T03:42:55;17.13;;;6.28;;
22201;SDS011;11266;51.522;6.302;2023-08-01T03:43:40;11.93;;;6.45;;
22201;SDS011;11266;51.522;6.302;2023-08-01T03:44:26;12.52;;;6.68;;
22201;SDS011;11266;51.522;6.302;2023-08-01T03:45:12;15.85;;;7.95;;
22201;SDS011;11266;51.522;6.302;2023-08-01T03:45:57;19.13;;;7.68;;
22201;SDS011;11266;51.522;6.302;2023-08-01T03:46:43;13.45;;;6.72;;
22201;SDS011;11266;51.522;6.302;2023-08-01T03:47:29;14.55;;;7.35;;
22201;SDS011;11266;51.522;6.302;2023-08-01T03:48:14;9.20;;;6.38;;
22201;SDS011;11266;51.522;6.302;2023-08-01T03:49:00;16.52;;;7.25;;
22201;SDS011;11266;51.522;6.302;2023-08-01T03:49:46;14.38;;;7.80;;
22201;SDS011;11266;51.522;6.302;2023-08-01T03:50:31;15.00;;;7.78;;
22201;SDS011;11266;51.522;6.302;2023-08-01T03:51:17;16.05;;;7.43;;
22201;SDS011;11266;51.522;6.302;2023-08-01T03:52:04;17.88;;;6.88;;
22201;SDS011;11266;51.522;6.302;2023-08-01T03:52:50;29.17;;;7.20;;
22201;SDS011;11266;51.522;6.302;2023-08-01T03:53:36;18.35;;;7.30;;
22201;SDS011;11266;51.522;6.302;2023-08-01T03:54:22;14.70;;;7.50;;
22201;SDS011;11266;51.522;6.302;2023-08-01T03:55:07;13.80;;;8.18;;
22201;SDS011;11266;51.522;6.302;2023-08-01T03:55:53;16.85;;;7.82;;
22201;SDS011;11266;51.522;6.302;2023-08-01T03:56:39;17.90;;;7.32;;
22201;SDS011;11266;51.522;6.302;2023-08-01T03:57:27;15.20;;;7.28;;
22201;SDS011;11266;51.522;6.302;2023-08-01T03:58:13;16.70;;;8.65;;
22201;SDS011;11266;51.522;6.302;2023-08-01T03:58:59;15.68;;;6.90;;
22201;SDS011;11266;51.522;6.302;2023-08-01T03:59:45;13.82;;;6.65;;
22201;SDS011;11266;51.522;6.302;2023-08-01T04:00:31;20.02;;;7.45;;
22201;SDS011;11266;51.522;6.302;2023-08-01T04:01:17;12.73;;;7.70;;
22201;SDS011;11266;51.522;6.302;2023-08-01T04:02:03;19.05;;;7.75;;
22201;SDS011;11266;51.522;6.302;2023-08-01T04:02:49;14.73;;;7.47;;
22201;SDS011;11266;51.522;6.302;2023-08-01T04:03:34;18.27;;;8.77;;
22201;SDS011;11266;51.522;6.302;2023-08-01T04:04:20;9.90;;;6.72;;
22201;SDS011;11266;51.522;6.302;2023-08-01T04:05:05;14.63;;;7.95;;
22201;SDS011;11266;51.522;6.302;2023-08-01T04:05:51;11.98;;;7.47;;
22201;SDS011;11266;51.522;6.302;2023-08-01T04:06:36;13.60;;;7.15;;
22201;SDS011;11266;51.522;6.302;2023-08-01T04:07:22;15.65;;;8.52;;
22201;SDS011;11266;51.522;6.302;2023-08-01T04:08:07;20.40;;;8.52;;
22201;SDS011;11266;51.522;6.302;2023-08-01T04:08:53;13.55;;;7.85;;
22201;SDS011;11266;51.522;6.302;2023-08-01T04:09:41;15.75;;;8.60;;
22201;SDS011;11266;51.522;6.302;2023-08-01T04:10:27;14.35;;;8.15;;
22201;SDS011;11266;51.522;6.302;2023-08-01T04:11:12;19.33;;;8.50;;
22201;SDS011;11266;51.522;6.302;2023-08-01T04:11:58;19.00;;;8.20;;
22201;SDS011;11266;51.522;6.302;2023-08-01T04:12:43;20.55;;;9.10;;
22201;SDS011;11266;51.522;6.302;2023-08-01T04:13:29;14.80;;;7.60;;
22201;SDS011;11266;51.522;6.302;2023-08-01T04:14:14;16.38;;;8.52;;
22201;SDS011;11266;51.522;6.302;2023-08-01T04:15:00;21.80;;;8.55;;
22201;SDS011;11266;51.522;6.302;2023-08-01T04:15:45;18.23;;;8.93;;
22201;SDS011;11266;51.522;6.302;2023-08-01T04:16:31;18.30;;;8.40;;
22201;SDS011;11266;51.522;6.302;2023-08-01T04:17:16;15.43;;;7.65;;
22201;SDS011;11266;51.522;6.302;2023-08-01T04:18:02;21.45;;;8.88;;
22201;SDS011;11266;51.522;6.302;2023-08-01T04:18:48;15.38;;;8.52;;
22201;SDS011;11266;51.522;6.302;2023-08-01T04:19:39;19.33;;;8.13;;
22201;SDS011;11266;51.522;6.302;2023-08-01T04:20:25;19.05;;;9.20;;
22201;SDS011;11266;51.522;6.302;2023-08-01T04:21:12;18.40;;;8.30;;
22201;SDS011;11266;51.522;6.302;2023-08-01T04:21:59;18.30;;;8.00;;
22201;SDS011;11266;51.522;6.302;2023-08-01T04:22:44;13.43;;;8.13;;
22201;SDS011;11266;51.522;6.302;2023-08-01T04:23:30;14.65;;;8.52;;
22201;SDS011;11266;51.522;6.302;2023-08-01T04:24:16;14.73;;;8.00;;
22201;SDS011;11266;51.522;6.302;2023-08-01T04:25:01;13.98;;;8.65;;
22201;SDS011;11266;51.522;6.302;2023-08-01T04:25:47;18.95;;;8.63;;
22201;SDS011;11266;51.522;6.302;2023-08-01T04:26:33;17.45;;;9.10;;
22201;SDS011;11266;51.522;6.302;2023-08-01T04:27:18;17.95;;;8.85;;
22201;SDS011;11266;51.522;6.302;2023-08-01T04:28:04;14.85;;;7.90;;
22201;SDS011;11266;51.522;6.302;2023-08-01T04:28:49;15.52;;;7.90;;
22201;SDS011;11266;51.522;6.302;2023-08-01T04:29:35;15.75;;;8.65;;
22201;SDS011;11266;51.522;6.302;2023-08-01T04:30:20;20.70;;;9.82;;
22201;SDS011;11266;51.522;6.302;2023-08-01T04:31:06;15.77;;;9.25;;
22201;SDS011;11266;51.522;6.302;2023-08-01T04:31:51;19.52;;;9.55;;
22201;SDS011;11266;51.522;6.302;2023-08-01T04:32:37;19.65;;;9.32;;
22201;SDS011;11266;51.522;6.302;2023-08-01T04:33:23;17.13;;;8.77;;
22201;SDS011;11266;51.522;6.302;2023-08-01T04:34:08;16.58;;;9.00;;